Time;durP1;ratioP1;P1;durP2;ratioP2;P2;SDS_P1;SDS_P2;PMS_P1;PMS_P2;Temp;Humidity;BMP_temperature;BMP_pressure;BME280_temperature;BME280_humidity;BME280_pressure;Samples;Min_cycle;Max_cycle;Signal;HPM_P1;HPM_P2
2023/10/19 00:00:48;;;;;;;21.80;12.80;;;;;;;;;;103627;1291;544854;-76
2023/10/19 00:04:22;;;;;;;22.00;13.20;;;;;;;;;;103710;1292;545207;-76
2023/10/19 00:07:59;;;;;;;20.70;13.40;;;;;;;;;;103698;1290;545524;-76
2023/10/19 00:11:40;;;;;;;23.40;14.50;;;;;;;;;;103698;1294;545031;-76
2023/10/19 00:15:14;;;;;;;21.20;12.90;;;;;;;;;;103668;1295;544864;-76
2023/10/19 00:18:52;;;;;;;20.50;12.90;;;;;;;;;;103732;1291;544852;-78
2023/10/19 00:22:36;;;;;;;21.90;13.00;;;;;;;;;;103534;1295;548279;-76
2023/10/19 00:26:08;;;;;;;21.20;13.20;;;;;;;;;;103668;1292;545036;-76
2023/10/19 00:29:49;;;;;;;20.40;14.10;;;;;;;;;;104070;1289;544795;-76
2023/10/19 00:33:21;;;;;;;19.60;13.10;;;;;;;;;;103623;1295;545630;-77
2023/10/19 00:37:01;;;;;;;20.00;13.30;;;;;;;;;;103733;1292;544899;-77
2023/10/19 00:40:36;;;;;;;19.40;12.60;;;;;;;;;;103696;1291;546574;-77
2023/10/19 00:44:16;;;;;;;20.90;13.10;;;;;;;;;;103715;1291;545253;-77
2023/10/19 00:48:04;;;;;;;21.40;13.80;;;;;;;;;;103541;1293;547823;-77
2023/10/19 00:52:11;;;;;;;20.70;14.60;;;;;;;;;;103805;1292;545100;-76
2023/10/19 01:05:38;;;;;;;18.30;12.60;;;;;;;;;;104757;1283;550787;-76
2023/10/19 01:08:26;;;;;;;19.70;13.20;;;;;;;;;;104029;1286;546065;-76
2023/10/19 01:12:21;;;;;;;17.10;12.60;;;;;;;;;;103602;1292;544933;-78
2023/10/19 01:15:49;;;;;;;19.60;12.30;;;;;;;;;;103703;1301;547732;-76
2023/10/19 01:19:20;;;;;;;18.20;12.00;;;;;;;;;;103779;1292;547892;-76
2023/10/19 01:26:31;;;;;;;19.10;12.50;;;;;;;;;;103724;1289;545260;-75
2023/10/19 01:30:09;;;;;;;19.00;12.80;;;;;;;;;;103730;1292;545690;-77
2023/10/19 01:33:46;;;;;;;18.80;11.90;;;;;;;;;;104022;1292;545037;-77
2023/10/19 01:37:29;;;;;;;17.60;12.20;;;;;;;;;;103629;1291;547902;-75
2023/10/19 01:41:05;;;;;;;18.80;11.60;;;;;;;;;;103537;1292;545089;-75
2023/10/19 01:44:44;;;;;;;17.60;11.50;;;;;;;;;;103564;1295;548749;-76
2023/10/19 01:48:19;;;;;;;18.80;12.70;;;;;;;;;;103561;1292;547772;-75
2023/10/19 01:52:00;;;;;;;18.60;12.30;;;;;;;;;;103553;1289;548144;-76
2023/10/19 01:55:36;;;;;;;17.10;11.40;;;;;;;;;;103376;1294;544862;-77
2023/10/19 01:59:09;;;;;;;15.60;11.00;;;;;;;;;;103684;1289;545496;-75
2023/10/19 02:02:51;;;;;;;16.60;10.90;;;;;;;;;;103566;1292;548013;-75
2023/10/19 02:06:27;;;;;;;15.90;10.40;;;;;;;;;;103926;1288;545043;-77
2023/10/19 02:09:57;;;;;;;17.30;11.50;;;;;;;;;;103780;1289;544980;-77
2023/10/19 02:13:40;;;;;;;15.90;11.00;;;;;;;;;;104011;1292;544803;-76
2023/10/19 02:17:18;;;;;;;21.70;12.70;;;;;;;;;;103612;1290;544633;-76
2023/10/19 02:20:56;;;;;;;18.40;11.30;;;;;;;;;;103712;1292;546515;-76
2023/10/19 02:24:32;;;;;;;14.80;10.00;;;;;;;;;;103719;1292;544980;-75
2023/10/19 02:28:09;;;;;;;16.10;10.10;;;;;;;;;;103739;1290;545430;-77
2023/10/19 02:31:53;;;;;;;19.20;11.70;;;;;;;;;;103773;1291;544981;-77
2023/10/19 02:35:37;;;;;;;21.30;13.10;;;;;;;;;;103621;1289;547977;-76
2023/10/19 02:39:28;;;;;;;22.10;12.20;;;;;;;;;;103716;1294;544955;-75
2023/10/19 02:42:46;;;;;;;23.40;12.30;;;;;;;;;;103819;1288;545458;-76
2023/10/19 02:46:23;;;;;;;17.50;9.90;;;;;;;;;;103894;1289;545300;-77
2023/10/19 02:49:59;;;;;;;16.60;10.10;;;;;;;;;;103752;1291;545055;-76
2023/10/19 02:53:38;;;;;;;15.00;10.80;;;;;;;;;;103834;1292;545723;-75
2023/10/19 02:57:14;;;;;;;15.80;11.10;;;;;;;;;;103712;1289;545386;-75
2023/10/19 03:00:52;;;;;;;15.80;10.50;;;;;;;;;;103731;1289;546181;-75
2023/10/19 03:04:29;;;;;;;16.00;10.50;;;;;;;;;;104005;1292;544987;-78
2023/10/19 03:08:07;;;;;;;13.10;9.30;;;;;;;;;;103735;1294;544826;-75
2023/10/19 03:11:45;;;;;;;14.50;10.40;;;;;;;;;;104004;1289;544752;-76
2023/10/19 03:15:21;;;;;;;17.50;11.10;;;;;;;;;;103726;1290;544854;-75
2023/10/19 03:18:59;;;;;;;15.70;11.50;;;;;;;;;;103692;1292;544919;-74
2023/10/19 03:22:38;;;;;;;16.00;10.20;;;;;;;;;;104004;1293;545491;-77
2023/10/19 03:26:36;;;;;;;15.90;10.20;;;;;;;;;;103649;1289;544991;-74
2023/10/19 03:30:00;;;;;;;15.30;10.30;;;;;;;;;;103621;1292;548100;-75
2023/10/19 03:33:29;;;;;;;17.20;11.30;;;;;;;;;;103713;1290;545159;-75
2023/10/19 03:37:14;;;;;;;15.60;10.90;;;;;;;;;;103478;1292;548526;-76
2023/10/19 03:40:51;;;;;;;14.80;10.00;;;;;;;;;;103701;1291;545687;-76
2023/10/19 03:44:24;;;;;;;16.00;9.50;;;;;;;;;;103642;1289;545125;-75
2023/10/19 03:48:00;;;;;;;15.30;9.80;;;;;;;;;;103711;1289;544803;-76
2023/10/19 03:51:40;;;;;;;15.40;10.10;;;;;;;;;;103744;1290;545536;-75
2023/10/19 03:55:23;;;;;;;16.60;10.80;;;;;;;;;;103710;1292;545686;-77
2023/10/19 03:58:52;;;;;;;17.60;9.90;;;;;;;;;;103686;1292;545125;-75
2023/10/19 04:02:29;;;;;;;16.60;10.50;;;;;;;;;;103433;1292;545321;-76
2023/10/19 04:06:13;;;;;;;19.70;10.80;;;;;;;;;;103668;1292;544672;-75
2023/10/19 04:13:21;;;;;;;17.40;11.30;;;;;;;;;;103653;1291;545178;-77
2023/10/19 04:16:59;;;;;;;17.40;10.60;;;;;;;;;;103702;1293;545339;-75
2023/10/19 04:21:06;;;;;;;15.20;10.30;;;;;;;;;;104152;1286;544787;-76
2023/10/19 04:24:14;;;;;;;15.10;9.90;;;;;;;;;;103715;1290;545703;-77
2023/10/19 04:27:57;;;;;;;16.10;11.40;;;;;;;;;;103564;1302;548100;-75
2023/10/19 04:31:29;;;;;;;16.90;12.10;;;;;;;;;;103755;1289;545389;-75
2023/10/19 04:35:07;;;;;;;19.30;12.00;;;;;;;;;;103732;1289;545091;-75
2023/10/19 04:38:44;;;;;;;18.20;11.50;;;;;;;;;;103727;1292;545089;-75
2023/10/19 04:42:22;;;;;;;17.50;11.80;;;;;;;;;;103646;1292;545093;-77
2023/10/19 04:45:58;;;;;;;16.80;11.20;;;;;;;;;;103720;1291;545037;-78
2023/10/19 04:49:35;;;;;;;20.40;12.70;;;;;;;;;;104494;1285;545944;-76
2023/10/19 04:53:13;;;;;;;20.60;12.90;;;;;;;;;;103747;1291;544750;-76
2023/10/19 04:56:52;;;;;;;17.40;12.30;;;;;;;;;;103688;1295;544887;-75
2023/10/19 05:00:28;;;;;;;19.40;11.70;;;;;;;;;;104116;1285;544909;-74
2023/10/19 05:04:25;;;;;;;16.20;12.20;;;;;;;;;;104359;1287;547808;-75
2023/10/19 05:08:03;;;;;;;17.90;12.10;;;;;;;;;;104048;1288;547937;-75
2023/10/19 05:11:20;;;;;;;17.20;11.20;;;;;;;;;;103444;1294;545114;-75
2023/10/19 05:15:18;;;;;;;17.40;11.80;;;;;;;;;;103746;1291;547953;-75
2023/10/19 05:18:36;;;;;;;17.70;11.20;;;;;;;;;;103854;1288;545007;-74
2023/10/19 05:22:12;;;;;;;17.20;10.90;;;;;;;;;;103781;1289;545738;-75
2023/10/19 05:26:00;;;;;;;17.10;11.30;;;;;;;;;;103756;1292;545978;-75
2023/10/19 05:29:47;;;;;;;17.60;12.30;;;;;;;;;;103825;1292;548062;-75
2023/10/19 05:33:06;;;;;;;16.90;11.50;;;;;;;;;;103801;1291;544958;-76
2023/10/19 05:36:46;;;;;;;16.80;10.60;;;;;;;;;;103848;1289;544973;-75
2023/10/19 05:40:42;;;;;;;16.70;10.70;;;;;;;;;;104374;1287;548222;-76
2023/10/19 05:43:57;;;;;;;17.50;10.90;;;;;;;;;;103775;1290;545146;-76
2023/10/19 05:47:41;;;;;;;18.70;11.30;;;;;;;;;;103584;1290;547883;-78
2023/10/19 05:51:18;;;;;;;18.20;10.50;;;;;;;;;;103624;1290;548121;-75
2023/10/19 05:54:50;;;;;;;18.00;11.00;;;;;;;;;;103766;1292;545864;-76
2023/10/19 05:58:33;;;;;;;18.00;10.50;;;;;;;;;;103545;1292;548111;-77
2023/10/19 06:02:07;;;;;;;19.70;12.00;;;;;;;;;;103790;1292;545007;-76
2023/10/19 06:06:01;;;;;;;17.80;11.80;;;;;;;;;;103940;1291;548180;-75
2023/10/19 06:09:19;;;;;;;17.80;11.10;;;;;;;;;;104196;1286;545696;-75
2023/10/19 06:13:03;;;;;;;18.20;11.20;;;;;;;;;;104282;1288;548402;-76
2023/10/19 06:16:34;;;;;;;17.00;10.70;;;;;;;;;;103679;1292;546280;-75
2023/10/19 06:20:23;;;;;;;16.80;11.50;;;;;;;;;;103750;1291;544864;-75
2023/10/19 06:23:50;;;;;;;16.50;11.60;;;;;;;;;;103711;1289;545185;-75
2023/10/19 06:27:27;;;;;;;17.80;13.10;;;;;;;;;;103653;1291;545288;-76
2023/10/19 06:31:04;;;;;;;18.20;13.20;;;;;;;;;;103711;1291;545066;-76
2023/10/19 06:34:42;;;;;;;18.40;12.90;;;;;;;;;;103691;1291;545048;-76
2023/10/19 06:38:39;;;;;;;18.80;13.00;;;;;;;;;;104129;1285;547981;-76
2023/10/19 06:42:21;;;;;;;19.00;12.70;;;;;;;;;;103806;1292;548089;-75
2023/10/19 06:45:36;;;;;;;15.40;11.60;;;;;;;;;;103650;1294;545686;-76
2023/10/19 06:49:24;;;;;;;20.80;12.20;;;;;;;;;;103958;1289;546037;-76
2023/10/19 06:53:03;;;;;;;17.80;12.20;;;;;;;;;;104018;1288;547779;-76
2023/10/19 06:56:26;;;;;;;16.20;11.80;;;;;;;;;;104445;1289;545828;-76
2023/10/19 07:00:26;;;;;;;19.80;13.50;;;;;;;;;;104161;1288;547869;-76
2023/10/19 07:14:10;;;;;;;17.60;11.80;;;;;;;;;;104268;1286;553460;-76
2023/10/19 07:17:02;;;;;;;20.20;12.40;;;;;;;;;;103744;1290;544812;-77
2023/10/19 07:31:03;;;;;;;18.90;12.80;;;;;;;;;;104579;1285;550243;-76
2023/10/19 07:33:58;;;;;;;20.10;14.60;;;;;;;;;;103731;1292;544798;-76
2023/10/19 07:37:48;;;;;;;26.10;16.40;;;;;;;;;;103812;1295;548032;-76
2023/10/19 07:41:11;;;;;;;23.10;16.00;;;;;;;;;;104200;1300;544987;-76
2023/10/19 07:44:49;;;;;;;22.10;14.50;;;;;;;;;;103947;1289;545244;-76
2023/10/19 07:48:32;;;;;;;20.20;13.70;;;;;;;;;;103568;1292;545391;-75
2023/10/19 07:52:07;;;;;;;19.10;14.30;;;;;;;;;;103730;1289;544838;-77
2023/10/19 07:56:00;;;;;;;19.50;13.70;;;;;;;;;;104082;1288;547973;-76
2023/10/19 07:59:22;;;;;;;21.00;13.90;;;;;;;;;;103613;1297;545347;-75
2023/10/19 08:13:19;;;;;;;19.20;13.50;;;;;;;;;;104479;1286;549597;-75
2023/10/19 08:16:31;;;;;;;20.40;14.70;;;;;;;;;;103848;1292;548037;-75
2023/10/19 08:19:50;;;;;;;25.50;18.20;;;;;;;;;;103710;1289;545028;-75
2023/10/19 08:23:38;;;;;;;23.90;16.60;;;;;;;;;;103550;1295;548276;-76
2023/10/19 08:27:05;;;;;;;19.50;14.20;;;;;;;;;;103613;1291;544947;-76
2023/10/19 08:31:05;;;;;;;20.10;13.60;;;;;;;;;;104252;1296;548078;-76
2023/10/19 08:44:42;;;;;;;18.80;13.50;;;;;;;;;;104417;1286;549983;-76
2023/10/19 08:47:36;;;;;;;18.80;13.90;;;;;;;;;;103745;1289;545033;-75
2023/10/19 08:51:12;;;;;;;19.30;14.10;;;;;;;;;;103839;1288;544873;-76
2023/10/19 08:54:50;;;;;;;19.80;14.90;;;;;;;;;;103781;1292;546248;-76
2023/10/19 08:58:34;;;;;;;20.00;14.70;;;;;;;;;;103632;1289;546763;-75
2023/10/19 09:02:06;;;;;;;20.30;14.60;;;;;;;;;;104030;1286;544979;-75
2023/10/19 09:06:02;;;;;;;18.20;13.80;;;;;;;;;;104086;1284;548028;-76
2023/10/19 09:09:20;;;;;;;19.70;14.70;;;;;;;;;;103776;1292;545332;-76
2023/10/19 09:23:32;;;;;;;24.70;18.00;;;;;;;;;;104797;1282;551683;-76
2023/10/19 09:26:46;;;;;;;18.90;15.10;;;;;;;;;;104357;1286;547967;-76
2023/10/19 09:30:01;;;;;;;22.70;15.90;;;;;;;;;;103878;1292;545410;-76
2023/10/19 09:33:40;;;;;;;21.50;16.50;;;;;;;;;;103879;1292;545003;-76
2023/10/19 09:37:17;;;;;;;20.90;15.10;;;;;;;;;;104128;1286;544726;-76
2023/10/19 09:40:56;;;;;;;20.20;16.10;;;;;;;;;;103615;1291;545387;-76
2023/10/19 09:44:39;;;;;;;22.90;17.50;;;;;;;;;;103711;1289;544990;-77
2023/10/19 09:48:16;;;;;;;22.80;16.30;;;;;;;;;;103657;1294;548325;-77
2023/10/19 09:51:49;;;;;;;22.20;15.70;;;;;;;;;;103732;1290;545560;-76
2023/10/19 09:55:31;;;;;;;22.40;16.20;;;;;;;;;;103750;1289;544868;-76
2023/10/19 09:59:05;;;;;;;22.10;17.00;;;;;;;;;;104173;1284;544740;-76
2023/10/19 10:02:46;;;;;;;23.30;17.30;;;;;;;;;;104250;1285;546161;-76
2023/10/19 10:17:05;;;;;;;24.60;18.00;;;;;;;;;;104209;1285;553568;-76
2023/10/19 10:20:13;;;;;;;21.60;17.00;;;;;;;;;;103558;1290;548020;-76
2023/10/19 10:24:00;;;;;;;23.40;17.30;;;;;;;;;;103877;1292;548121;-77
2023/10/19 10:27:51;;;;;;;23.70;18.30;;;;;;;;;;103593;1295;548051;-77
2023/10/19 10:31:14;;;;;;;23.50;17.70;;;;;;;;;;104056;1289;547805;-76
2023/10/19 10:34:37;;;;;;;23.90;17.60;;;;;;;;;;103738;1289;544847;-76
2023/10/19 10:38:14;;;;;;;25.30;19.30;;;;;;;;;;103310;1294;548096;-77
2023/10/19 10:41:45;;;;;;;22.70;17.80;;;;;;;;;;103482;1294;544998;-76
2023/10/19 10:55:44;;;;;;;22.00;17.20;;;;;;;;;;104337;1287;550012;-76
2023/10/19 10:58:37;;;;;;;24.50;19.00;;;;;;;;;;103699;1291;544819;-76
2023/10/19 11:02:21;;;;;;;23.90;19.30;;;;;;;;;;103513;1292;549301;-76
2023/10/19 11:05:52;;;;;;;25.30;20.20;;;;;;;;;;103799;1296;544915;-76
2023/10/19 11:09:43;;;;;;;28.30;22.80;;;;;;;;;;103392;1295;547876;-76
2023/10/19 11:13:07;;;;;;;27.00;22.40;;;;;;;;;;104106;1289;544928;-76
2023/10/19 11:16:44;;;;;;;25.50;21.70;;;;;;;;;;103634;1292;545074;-76
2023/10/19 11:20:25;;;;;;;24.90;20.20;;;;;;;;;;103834;1289;544815;-76
2023/10/19 11:23:58;;;;;;;24.70;20.30;;;;;;;;;;103791;1289;545279;-75
2023/10/19 11:27:41;;;;;;;23.40;19.00;;;;;;;;;;103589;1292;546158;-76
2023/10/19 11:31:24;;;;;;;24.90;18.60;;;;;;;;;;103583;1292;545945;-75
2023/10/19 11:34:57;;;;;;;22.70;18.00;;;;;;;;;;103539;1292;548176;-76
2023/10/19 11:38:29;;;;;;;23.00;19.10;;;;;;;;;;103886;1289;545184;-76
2023/10/19 11:42:06;;;;;;;24.80;18.20;;;;;;;;;;103729;1290;544968;-75
2023/10/19 11:45:45;;;;;;;24.40;18.30;;;;;;;;;;103769;1292;545684;-75
2023/10/19 11:49:22;;;;;;;24.30;18.40;;;;;;;;;;104039;1287;545987;-75
2023/10/19 11:52:59;;;;;;;23.10;17.80;;;;;;;;;;103651;1302;544917;-75
2023/10/19 12:38:19;;;;;;;26.90;20.60;;;;;;;;;;104488;1286;554189;-77
2023/10/19 12:41:09;;;;;;;28.50;21.90;;;;;;;;;;103469;1294;545685;-74
2023/10/19 12:44:45;;;;;;;27.50;21.20;;;;;;;;;;103752;1293;545708;-74
2023/10/19 12:48:25;;;;;;;28.20;20.60;;;;;;;;;;104144;1289;545119;-76
2023/10/19 12:52:07;;;;;;;25.20;18.20;;;;;;;;;;104434;1285;545475;-73
2023/10/19 12:55:37;;;;;;;22.90;17.50;;;;;;;;;;103736;1289;545536;-86
2023/10/19 12:59:17;;;;;;;21.50;17.80;;;;;;;;;;103728;1291;544793;-76
2023/10/19 13:02:59;;;;;;;22.30;18.70;;;;;;;;;;103688;1291;545273;-74
2023/10/19 13:06:31;;;;;;;26.50;20.80;;;;;;;;;;103723;1289;546562;-75
2023/10/19 13:10:07;;;;;;;26.70;21.50;;;;;;;;;;104093;1285;544980;-77
2023/10/19 13:13:45;;;;;;;24.90;20.30;;;;;;;;;;103759;1292;544968;-73
2023/10/19 13:17:22;;;;;;;24.00;18.50;;;;;;;;;;104012;1292;545615;-72
2023/10/19 13:21:04;;;;;;;22.60;18.10;;;;;;;;;;103747;1292;545280;-75
2023/10/19 13:24:41;;;;;;;22.40;17.00;;;;;;;;;;103936;1288;544965;-83
2023/10/19 13:28:14;;;;;;;23.30;18.00;;;;;;;;;;103900;1289;544996;-76
2023/10/19 13:31:52;;;;;;;22.70;18.30;;;;;;;;;;103974;1289;544849;-83
2023/10/19 13:35:30;;;;;;;23.80;18.70;;;;;;;;;;103571;1294;544841;-74
2023/10/19 13:39:12;;;;;;;22.50;18.00;;;;;;;;;;103824;1296;544758;-82
2023/10/19 13:42:50;;;;;;;21.00;17.30;;;;;;;;;;103482;1295;548176;-75
2023/10/19 13:46:23;;;;;;;22.90;18.30;;;;;;;;;;103731;1303;545318;-73
2023/10/19 13:50:00;;;;;;;26.10;20.40;;;;;;;;;;103730;1293;544822;-78
2023/10/19 13:53:36;;;;;;;26.30;20.30;;;;;;;;;;103948;1289;545054;-79
2023/10/19 13:57:14;;;;;;;25.30;19.30;;;;;;;;;;103720;1295;545430;-82
2023/10/19 14:00:51;;;;;;;25.00;20.10;;;;;;;;;;103818;1291;545909;-73
2023/10/19 14:04:31;;;;;;;25.50;19.90;;;;;;;;;;103538;1293;545610;-82
2023/10/19 14:08:06;;;;;;;26.60;22.00;;;;;;;;;;104591;1286;545160;-78
2023/10/19 14:11:47;;;;;;;27.70;20.60;;;;;;;;;;103789;1292;545484;-84
2023/10/19 14:15:22;;;;;;;22.70;18.20;;;;;;;;;;103772;1290;545180;-86
2023/10/19 14:18:58;;;;;;;23.40;17.60;;;;;;;;;;104125;1288;545085;-74
2023/10/19 14:22:37;;;;;;;22.70;18.50;;;;;;;;;;104030;1291;545596;-81
2023/10/19 14:26:14;;;;;;;24.60;20.20;;;;;;;;;;103810;1291;545547;-75
2023/10/19 14:44:11;;;;;;;21.80;17.40;;;;;;;;;;108456;1262;1049562;-76
2023/10/19 14:47:06;;;;;;;21.40;17.10;;;;;;;;;;103527;1292;544939;-78
2023/10/19 14:50:43;;;;;;;21.60;16.80;;;;;;;;;;103773;1288;544939;-89
2023/10/19 14:54:19;;;;;;;22.50;17.10;;;;;;;;;;103560;1291;544937;-73
2023/10/19 14:58:02;;;;;;;22.20;17.50;;;;;;;;;;103669;1290;547967;-86
2023/10/19 15:01:35;;;;;;;24.10;18.00;;;;;;;;;;103793;1291;544766;-85
2023/10/19 15:05:16;;;;;;;25.60;17.40;;;;;;;;;;103774;1292;545181;-81
2023/10/19 15:08:49;;;;;;;25.10;19.10;;;;;;;;;;103716;1289;545377;-83
2023/10/19 15:12:42;;;;;;;27.00;21.00;;;;;;;;;;103832;1292;548279;-71
2023/10/19 15:16:08;;;;;;;25.10;19.60;;;;;;;;;;103801;1292;545378;-72
2023/10/19 17:14:52;;;;;;;26.30;21.50;;;;;;;;;;103942;1292;547825;-86
2023/10/19 17:18:39;;;;;;;28.10;22.30;;;;;;;;;;103138;1298;548107;-87
2023/10/19 17:21:52;;;;;;;25.70;20.00;;;;;;;;;;103686;1299;545672;-81
2023/10/19 17:25:31;;;;;;;27.00;20.10;;;;;;;;;;103773;1291;544873;-74
2023/10/19 17:29:09;;;;;;;24.30;19.00;;;;;;;;;;103673;1291;545984;-75
2023/10/19 17:32:49;;;;;;;25.20;20.70;;;;;;;;;;103762;1292;548071;-76
2023/10/19 17:36:22;;;;;;;27.10;21.10;;;;;;;;;;103831;1291;544897;-75
2023/10/19 17:39:59;;;;;;;25.90;21.30;;;;;;;;;;103765;1302;544885;-75
2023/10/19 17:43:38;;;;;;;25.30;20.80;;;;;;;;;;103810;1290;544958;-74
2023/10/19 17:47:14;;;;;;;26.50;21.30;;;;;;;;;;103357;1293;544969;-74
2023/10/19 17:50:52;;;;;;;28.90;22.20;;;;;;;;;;103609;1305;544737;-74
2023/10/19 17:54:29;;;;;;;29.20;23.20;;;;;;;;;;103792;1290;545879;-77
2023/10/19 17:58:12;;;;;;;28.40;22.10;;;;;;;;;;103705;1291;547947;-78
2023/10/19 18:01:45;;;;;;;30.50;22.00;;;;;;;;;;103841;1289;544960;-80
2023/10/19 18:05:23;;;;;;;30.70;23.50;;;;;;;;;;103795;1291;545669;-81
2023/10/19 18:09:08;;;;;;;46.50;32.60;;;;;;;;;;103798;1290;546457;-74
2023/10/19 18:12:37;;;;;;;40.60;28.50;;;;;;;;;;103599;1292;545270;-81
2023/10/19 18:16:14;;;;;;;34.80;26.10;;;;;;;;;;103743;1291;545067;-86
2023/10/19 18:19:51;;;;;;;31.70;24.00;;;;;;;;;;103854;1291;545066;-78
2023/10/19 18:23:34;;;;;;;31.00;24.10;;;;;;;;;;103747;1293;547810;-84
2023/10/19 18:27:31;;;;;;;29.70;23.20;;;;;;;;;;104215;1302;548140;-80
2023/10/19 18:30:44;;;;;;;28.70;23.00;;;;;;;;;;103763;1295;545724;-73
2023/10/19 18:34:22;;;;;;;27.40;21.70;;;;;;;;;;103827;1296;544918;-84
2023/10/19 18:38:05;;;;;;;29.40;22.80;;;;;;;;;;103571;1291;548128;-82
2023/10/19 18:41:36;;;;;;;30.30;23.70;;;;;;;;;;103842;1291;545076;-80
2023/10/19 18:45:18;;;;;;;29.00;22.90;;;;;;;;;;103763;1292;547938;-80
2023/10/19 18:48:53;;;;;;;29.20;23.00;;;;;;;;;;103791;1290;545104;-75
2023/10/19 18:52:24;;;;;;;28.60;23.50;;;;;;;;;;104051;1295;545851;-78
2023/10/19 18:56:06;;;;;;;33.40;25.80;;;;;;;;;;103941;1289;544955;-82
2023/10/19 19:00:04;;;;;;;38.50;29.80;;;;;;;;;;103869;1294;545648;-88
2023/10/19 19:03:21;;;;;;;38.00;28.40;;;;;;;;;;103898;1289;544756;-77
2023/10/19 19:06:58;;;;;;;36.40;28.40;;;;;;;;;;104648;1283;545490;-78
2023/10/19 19:10:35;;;;;;;42.80;30.70;;;;;;;;;;103882;1295;545247;-83
2023/10/19 19:14:13;;;;;;;42.80;32.40;;;;;;;;;;103752;1292;544878;-84
2023/10/19 19:17:50;;;;;;;38.90;30.90;;;;;;;;;;103924;1289;544788;-75
2023/10/19 19:21:28;;;;;;;36.20;28.30;;;;;;;;;;103532;1297;544923;-87
2023/10/19 19:25:07;;;;;;;35.60;28.00;;;;;;;;;;104009;1292;545008;-80
2023/10/19 19:28:46;;;;;;;36.00;28.10;;;;;;;;;;103606;1295;545529;-81
2023/10/19 19:32:20;;;;;;;35.40;28.10;;;;;;;;;;104020;1301;544803;-75
2023/10/19 19:35:55;;;;;;;43.20;32.90;;;;;;;;;;103855;1292;544844;-77
2023/10/19 19:39:44;;;;;;;37.10;28.80;;;;;;;;;;103653;1294;547783;-88
2023/10/19 19:43:16;;;;;;;35.00;27.80;;;;;;;;;;103846;1289;545005;-81
2023/10/19 19:46:53;;;;;;;38.50;29.30;;;;;;;;;;103961;1289;544907;-88
2023/10/19 19:50:31;;;;;;;41.10;30.50;;;;;;;;;;104007;1288;544924;-78
2023/10/19 19:54:11;;;;;;;43.00;32.80;;;;;;;;;;103988;1289;545129;-80
2023/10/19 19:57:46;;;;;;;37.80;29.20;;;;;;;;;;104133;1290;544786;-78
2023/10/19 20:01:23;;;;;;;43.10;33.10;;;;;;;;;;104033;1290;544963;-75
2023/10/19 20:05:04;;;;;;;55.50;40.40;;;;;;;;;;103848;1292;545031;-74
2023/10/19 20:09:00;;;;;;;70.70;45.10;;;;;;;;;;103814;1289;545425;-75
2023/10/19 20:12:15;;;;;;;67.40;44.70;;;;;;;;;;103449;1295;545536;-74
2023/10/19 20:15:53;;;;;;;65.30;44.40;;;;;;;;;;103977;1292;545622;-77
2023/10/19 20:19:26;;;;;;;51.70;39.00;;;;;;;;;;104471;1289;545070;-87
2023/10/19 20:23:04;;;;;;;49.70;36.50;;;;;;;;;;104373;1289;545033;-74
2023/10/19 20:26:48;;;;;;;46.80;35.00;;;;;;;;;;104007;1288;545004;-75
2023/10/19 20:30:24;;;;;;;51.10;38.50;;;;;;;;;;104050;1294;544883;-73
2023/10/19 20:34:00;;;;;;;46.50;35.00;;;;;;;;;;104009;1295;546250;-79
2023/10/19 20:37:38;;;;;;;58.30;41.80;;;;;;;;;;103680;1294;545825;-85
2023/10/19 20:41:15;;;;;;;52.20;39.40;;;;;;;;;;104079;1292;544827;-88
2023/10/19 20:44:54;;;;;;;59.80;41.70;;;;;;;;;;103903;1292;545672;-74
2023/10/19 20:48:31;;;;;;;57.70;40.80;;;;;;;;;;103885;1292;544973;-83
2023/10/19 20:52:07;;;;;;;62.50;41.70;;;;;;;;;;103582;1294;545682;-76
2023/10/19 20:55:45;;;;;;;57.10;39.80;;;;;;;;;;103946;1289;545811;-75
2023/10/19 20:59:23;;;;;;;54.40;39.00;;;;;;;;;;104220;1289;544797;-74
2023/10/19 21:02:59;;;;;;;59.60;37.90;;;;;;;;;;103841;1291;545745;-76
2023/10/19 21:06:37;;;;;;;50.90;35.30;;;;;;;;;;103843;1289;545061;-78
2023/10/19 21:10:19;;;;;;;48.80;36.60;;;;;;;;;;103746;1294;544722;-78
2023/10/19 21:13:52;;;;;;;58.50;37.40;;;;;;;;;;103783;1291;545479;-73
2023/10/19 21:17:30;;;;;;;55.50;36.10;;;;;;;;;;103888;1292;545452;-74
2023/10/19 21:21:09;;;;;;;48.60;35.50;;;;;;;;;;103779;1295;544734;-82
2023/10/19 21:24:45;;;;;;;51.10;35.60;;;;;;;;;;103767;1291;544860;-85
2023/10/19 21:28:22;;;;;;;52.20;36.00;;;;;;;;;;103510;1295;544896;-74
2023/10/19 21:32:00;;;;;;;48.70;36.70;;;;;;;;;;104185;1291;545008;-80
2023/10/19 21:35:42;;;;;;;54.00;37.70;;;;;;;;;;103637;1292;549091;-83
2023/10/19 21:39:20;;;;;;;51.80;36.70;;;;;;;;;;103590;1290;548172;-83
2023/10/19 21:42:52;;;;;;;44.40;33.90;;;;;;;;;;103770;1289;545652;-74
2023/10/19 21:46:31;;;;;;;45.10;35.30;;;;;;;;;;103741;1291;545097;-73
2023/10/19 21:50:08;;;;;;;54.20;39.20;;;;;;;;;;103778;1291;545485;-74
2023/10/19 21:53:40;;;;;;;53.20;36.80;;;;;;;;;;103617;1291;544864;-74
2023/10/19 21:57:20;;;;;;;48.50;36.40;;;;;;;;;;103831;1287;544968;-75
2023/10/19 22:01:07;;;;;;;48.60;35.50;;;;;;;;;;103798;1289;544798;-74
2023/10/19 22:04:39;;;;;;;46.50;34.50;;;;;;;;;;103489;1294;544920;-86
2023/10/19 22:08:17;;;;;;;49.00;35.20;;;;;;;;;;103771;1292;545410;-74
2023/10/19 22:11:53;;;;;;;47.80;35.90;;;;;;;;;;103854;1288;545928;-77
2023/10/19 22:15:31;;;;;;;42.80;32.80;;;;;;;;;;104434;1284;544897;-77
2023/10/19 22:19:09;;;;;;;50.10;33.70;;;;;;;;;;103820;1292;545286;-74
2023/10/19 22:22:47;;;;;;;40.90;31.80;;;;;;;;;;103827;1289;544790;-79
2023/10/19 22:26:25;;;;;;;43.20;32.90;;;;;;;;;;103668;1291;545370;-75
2023/10/19 22:30:01;;;;;;;59.30;34.90;;;;;;;;;;103656;1292;545535;-78
2023/10/19 22:33:38;;;;;;;55.60;34.90;;;;;;;;;;103814;1288;545098;-86
2023/10/19 22:37:16;;;;;;;39.10;31.80;;;;;;;;;;104084;1292;545087;-85
2023/10/19 22:40:53;;;;;;;37.90;31.80;;;;;;;;;;103845;1289;545166;-73
2023/10/19 22:44:30;;;;;;;37.80;31.50;;;;;;;;;;103866;1303;545546;-85
2023/10/19 22:48:09;;;;;;;50.30;30.80;;;;;;;;;;103680;1291;545144;-85
2023/10/19 22:51:46;;;;;;;42.80;33.00;;;;;;;;;;103678;1290;545034;-76
2023/10/19 22:55:29;;;;;;;42.90;34.30;;;;;;;;;;103747;1296;548187;-75
2023/10/19 22:59:01;;;;;;;41.30;31.70;;;;;;;;;;103869;1289;545561;-79
2023/10/19 23:02:42;;;;;;;57.00;34.20;;;;;;;;;;104405;1285;545501;-81
2023/10/19 23:06:15;;;;;;;37.50;30.80;;;;;;;;;;103709;1293;544983;-77
2023/10/19 23:09:55;;;;;;;42.40;32.60;;;;;;;;;;104420;1282;544788;-82
2023/10/19 23:13:34;;;;;;;54.70;33.20;;;;;;;;;;103679;1289;545041;-74
2023/10/19 23:17:09;;;;;;;41.10;32.20;;;;;;;;;;103833;1290;544864;-76
2023/10/19 23:20:55;;;;;;;45.80;32.40;;;;;;;;;;103920;1294;545480;-84
2023/10/19 23:24:29;;;;;;;42.30;30.80;;;;;;;;;;103664;1292;545558;-73
2023/10/19 23:28:12;;;;;;;37.90;31.90;;;;;;;;;;103822;1292;545478;-74
2023/10/19 23:31:40;;;;;;;39.70;33.40;;;;;;;;;;103768;1288;545704;-77
2023/10/19 23:35:16;;;;;;;41.00;32.10;;;;;;;;;;103963;1289;545429;-74
2023/10/19 23:38:52;;;;;;;42.20;31.30;;;;;;;;;;103521;1295;545907;-87
2023/10/19 23:42:30;;;;;;;38.40;30.10;;;;;;;;;;103363;1295;544991;-83
2023/10/19 23:46:10;;;;;;;41.40;32.50;;;;;;;;;;104000;1293;545086;-85
2023/10/19 23:49:45;;;;;;;45.90;33.30;;;;;;;;;;103766;1292;546104;-74
2023/10/19 23:53:19;;;;;;;38.20;31.00;;;;;;;;;;103810;1294;545390;-79
2023/10/19 23:57:00;;;;;;;44.60;31.80;;;;;;;;;;103920;1289;544938;-75
